sensor_id;sensor_type;location;lat;lon;timestamp;temperature;humidity
31677;DHT22;18385;51.572;6.578;2024-03-02T00:00:07;11.50;53.40
31677;DHT22;18385;51.572;6.578;2024-03-02T00:02:45;11.40;53.50
31677;DHT22;18385;51.572;6.578;2024-03-02T00:05:12;11.30;53.60
31677;DHT22;18385;51.572;6.578;2024-03-02T00:07:41;11.30;53.70
31677;DHT22;18385;51.572;6.578;2024-03-02T00:10:10;11.30;53.80
31677;DHT22;18385;51.572;6.578;2024-03-02T00:12:37;11.20;53.90
31677;DHT22;18385;51.572;6.578;2024-03-02T00:17:56;11.30;54.10
31677;DHT22;18385;51.572;6.578;2024-03-02T00:20:23;11.30;54.00
31677;DHT22;18385;51.572;6.578;2024-03-02T00:22:51;11.30;54.10
31677;DHT22;18385;51.572;6.578;2024-03-02T00:25:17;11.40;54.30
31677;DHT22;18385;51.572;6.578;2024-03-02T00:27:47;11.50;54.30
31677;DHT22;18385;51.572;6.578;2024-03-02T00:30:59;11.60;54.20
31677;DHT22;18385;51.572;6.578;2024-03-02T00:33:27;11.70;54.10
31677;DHT22;18385;51.572;6.578;2024-03-02T00:35:54;11.60;54.00
31677;DHT22;18385;51.572;6.578;2024-03-02T00:38:20;11.60;54.00
31677;DHT22;18385;51.572;6.578;2024-03-02T00:40:46;11.60;54.20
31677;DHT22;18385;51.572;6.578;2024-03-02T00:43:38;11.70;54.20
31677;DHT22;18385;51.572;6.578;2024-03-02T00:46:05;11.80;54.20
31677;DHT22;18385;51.572;6.578;2024-03-02T00:48:30;11.90;54.20
31677;DHT22;18385;51.572;6.578;2024-03-02T00:51:05;11.90;54.20
31677;DHT22;18385;51.572;6.578;2024-03-02T00:53:32;12.00;54.20
31677;DHT22;18385;51.572;6.578;2024-03-02T00:56:01;12.00;54.10
31677;DHT22;18385;51.572;6.578;2024-03-02T00:58:27;12.10;54.10
31677;DHT22;18385;51.572;6.578;2024-03-02T01:00:52;12.20;54.10
31677;DHT22;18385;51.572;6.578;2024-03-02T01:03:18;12.20;54.10
31677;DHT22;18385;51.572;6.578;2024-03-02T01:05:45;12.30;54.10
31677;DHT22;18385;51.572;6.578;2024-03-02T01:08:11;12.30;54.00
31677;DHT22;18385;51.572;6.578;2024-03-02T01:10:36;12.30;53.90
31677;DHT22;18385;51.572;6.578;2024-03-02T01:13:02;12.30;54.60
31677;DHT22;18385;51.572;6.578;2024-03-02T01:15:28;12.40;54.00
31677;DHT22;18385;51.572;6.578;2024-03-02T01:17:53;12.40;54.00
31677;DHT22;18385;51.572;6.578;2024-03-02T01:20:19;12.50;54.00
31677;DHT22;18385;51.572;6.578;2024-03-02T01:22:45;12.50;53.90
31677;DHT22;18385;51.572;6.578;2024-03-02T01:25:10;12.50;53.90
31677;DHT22;18385;51.572;6.578;2024-03-02T01:27:36;12.50;54.00
31677;DHT22;18385;51.572;6.578;2024-03-02T01:30:01;12.40;54.00
31677;DHT22;18385;51.572;6.578;2024-03-02T01:32:27;12.50;54.10
31677;DHT22;18385;51.572;6.578;2024-03-02T01:34:53;12.50;54.10
31677;DHT22;18385;51.572;6.578;2024-03-02T01:37:18;12.60;54.10
31677;DHT22;18385;51.572;6.578;2024-03-02T01:39:44;12.60;54.10
31677;DHT22;18385;51.572;6.578;2024-03-02T01:42:10;12.70;54.10
31677;DHT22;18385;51.572;6.578;2024-03-02T01:44:36;12.70;54.10
31677;DHT22;18385;51.572;6.578;2024-03-02T01:47:02;12.80;54.00
31677;DHT22;18385;51.572;6.578;2024-03-02T01:49:27;12.70;53.90
31677;DHT22;18385;51.572;6.578;2024-03-02T01:51:53;12.80;54.00
31677;DHT22;18385;51.572;6.578;2024-03-02T01:54:19;12.90;54.00
31677;DHT22;18385;51.572;6.578;2024-03-02T01:56:45;12.90;53.90
31677;DHT22;18385;51.572;6.578;2024-03-02T01:59:11;12.90;53.90
31677;DHT22;18385;51.572;6.578;2024-03-02T02:01:39;12.90;53.90
31677;DHT22;18385;51.572;6.578;2024-03-02T02:04:06;12.90;53.90
31677;DHT22;18385;51.572;6.578;2024-03-02T02:06:32;13.00;54.00
31677;DHT22;18385;51.572;6.578;2024-03-02T02:08:58;13.00;53.90
31677;DHT22;18385;51.572;6.578;2024-03-02T02:11:24;13.00;53.90
31677;DHT22;18385;51.572;6.578;2024-03-02T02:13:50;13.00;53.90
31677;DHT22;18385;51.572;6.578;2024-03-02T02:16:16;13.00;53.90
31677;DHT22;18385;51.572;6.578;2024-03-02T02:18:41;13.00;53.90
31677;DHT22;18385;51.572;6.578;2024-03-02T02:21:07;13.00;53.90
31677;DHT22;18385;51.572;6.578;2024-03-02T02:23:33;13.00;53.90
31677;DHT22;18385;51.572;6.578;2024-03-02T02:25:59;13.00;53.90
31677;DHT22;18385;51.572;6.578;2024-03-02T02:28:25;13.00;53.90
31677;DHT22;18385;51.572;6.578;2024-03-02T02:30:50;13.00;53.90
31677;DHT22;18385;51.572;6.578;2024-03-02T02:33:16;13.00;54.50
31677;DHT22;18385;51.572;6.578;2024-03-02T02:35:42;13.00;53.90
31677;DHT22;18385;51.572;6.578;2024-03-02T02:38:07;13.00;53.90
31677;DHT22;18385;51.572;6.578;2024-03-02T02:40:33;13.00;53.90
31677;DHT22;18385;51.572;6.578;2024-03-02T02:42:59;13.00;53.90
31677;DHT22;18385;51.572;6.578;2024-03-02T02:45:25;13.00;53.90
31677;DHT22;18385;51.572;6.578;2024-03-02T02:47:50;13.00;53.90
31677;DHT22;18385;51.572;6.578;2024-03-02T02:50:16;13.00;53.80
31677;DHT22;18385;51.572;6.578;2024-03-02T02:52:42;13.00;53.80
31677;DHT22;18385;51.572;6.578;2024-03-02T02:55:10;13.00;53.80
31677;DHT22;18385;51.572;6.578;2024-03-02T02:57:37;12.90;53.80
31677;DHT22;18385;51.572;6.578;2024-03-02T03:00:08;12.90;53.90
31677;DHT22;18385;51.572;6.578;2024-03-02T03:02:39;12.90;54.00
31677;DHT22;18385;51.572;6.578;2024-03-02T03:05:08;12.90;54.00
31677;DHT22;18385;51.572;6.578;2024-03-02T03:07:34;12.80;54.00
31677;DHT22;18385;51.572;6.578;2024-03-02T03:10:00;12.80;54.00
31677;DHT22;18385;51.572;6.578;2024-03-02T03:12:26;12.80;54.00
31677;DHT22;18385;51.572;6.578;2024-03-02T03:14:52;12.80;54.10
31677;DHT22;18385;51.572;6.578;2024-03-02T03:17:18;12.80;54.10
31677;DHT22;18385;51.572;6.578;2024-03-02T03:19:43;12.80;54.00
31677;DHT22;18385;51.572;6.578;2024-03-02T03:22:09;12.70;54.00
31677;DHT22;18385;51.572;6.578;2024-03-02T03:24:35;12.70;54.10
31677;DHT22;18385;51.572;6.578;2024-03-02T03:27:00;12.60;54.10
31677;DHT22;18385;51.572;6.578;2024-03-02T03:29:26;12.50;54.20
31677;DHT22;18385;51.572;6.578;2024-03-02T03:31:52;12.50;54.40
31677;DHT22;18385;51.572;6.578;2024-03-02T03:34:17;12.50;54.40
31677;DHT22;18385;51.572;6.578;2024-03-02T03:36:43;12.40;54.40
31677;DHT22;18385;51.572;6.578;2024-03-02T03:39:09;12.40;54.70
31677;DHT22;18385;51.572;6.578;2024-03-02T03:41:34;12.40;54.70
31677;DHT22;18385;51.572;6.578;2024-03-02T03:44:00;12.50;54.70
31677;DHT22;18385;51.572;6.578;2024-03-02T03:46:25;12.50;54.70
31677;DHT22;18385;51.572;6.578;2024-03-02T03:48:51;12.50;54.80
31677;DHT22;18385;51.572;6.578;2024-03-02T03:51:17;12.50;54.80
31677;DHT22;18385;51.572;6.578;2024-03-02T03:53:44;12.40;54.70
31677;DHT22;18385;51.572;6.578;2024-03-02T03:56:09;12.20;54.70
31677;DHT22;18385;51.572;6.578;2024-03-02T03:58:35;12.10;54.80
31677;DHT22;18385;51.572;6.578;2024-03-02T04:01:01;12.00;54.90
31677;DHT22;18385;51.572;6.578;2024-03-02T04:03:26;11.90;55.10
31677;DHT22;18385;51.572;6.578;2024-03-02T04:05:52;11.90;55.30
31677;DHT22;18385;51.572;6.578;2024-03-02T04:08:18;12.00;55.40
31677;DHT22;18385;51.572;6.578;2024-03-02T04:10:43;12.00;55.40
31677;DHT22;18385;51.572;6.578;2024-03-02T04:13:09;12.00;55.30
31677;DHT22;18385;51.572;6.578;2024-03-02T04:15:35;12.00;55.40
31677;DHT22;18385;51.572;6.578;2024-03-02T04:18:00;12.10;55.50
31677;DHT22;18385;51.572;6.578;2024-03-02T04:20:26;12.10;55.50
31677;DHT22;18385;51.572;6.578;2024-03-02T04:22:52;12.10;55.30
31677;DHT22;18385;51.572;6.578;2024-03-02T04:25:17;12.20;55.40
31677;DHT22;18385;51.572;6.578;2024-03-02T04:27:43;12.10;55.40
31677;DHT22;18385;51.572;6.578;2024-03-02T04:30:09;12.10;55.40
31677;DHT22;18385;51.572;6.578;2024-03-02T04:32:34;12.00;55.40
31677;DHT22;18385;51.572;6.578;2024-03-02T04:35:01;11.90;55.50
31677;DHT22;18385;51.572;6.578;2024-03-02T04:37:27;11.90;55.60
31677;DHT22;18385;51.572;6.578;2024-03-02T04:39:53;12.00;55.70
31677;DHT22;18385;51.572;6.578;2024-03-02T04:42:19;12.00;55.70
31677;DHT22;18385;51.572;6.578;2024-03-02T04:44:44;12.10;55.70
31677;DHT22;18385;51.572;6.578;2024-03-02T04:47:10;12.10;55.70
31677;DHT22;18385;51.572;6.578;2024-03-02T04:49:36;12.20;55.70
31677;DHT22;18385;51.572;6.578;2024-03-02T04:52:02;12.20;55.70
31677;DHT22;18385;51.572;6.578;2024-03-02T04:54:27;12.10;55.70
31677;DHT22;18385;51.572;6.578;2024-03-02T04:56:53;12.10;55.80
31677;DHT22;18385;51.572;6.578;2024-03-02T04:59:19;12.20;55.90
31677;DHT22;18385;51.572;6.578;2024-03-02T05:01:45;12.20;55.80
31677;DHT22;18385;51.572;6.578;2024-03-02T05:04:11;12.30;55.80
31677;DHT22;18385;51.572;6.578;2024-03-02T05:06:38;12.20;55.70
31677;DHT22;18385;51.572;6.578;2024-03-02T05:09:06;12.20;55.80
31677;DHT22;18385;51.572;6.578;2024-03-02T05:11:31;12.20;55.80
31677;DHT22;18385;51.572;6.578;2024-03-02T05:14:06;12.10;55.70
31677;DHT22;18385;51.572;6.578;2024-03-02T05:16:35;12.00;55.70
31677;DHT22;18385;51.572;6.578;2024-03-02T05:19:01;11.90;55.80
31677;DHT22;18385;51.572;6.578;2024-03-02T05:21:27;11.70;55.90
31677;DHT22;18385;51.572;6.578;2024-03-02T05:23:52;11.60;56.00
31677;DHT22;18385;51.572;6.578;2024-03-02T05:26:18;11.50;56.10
31677;DHT22;18385;51.572;6.578;2024-03-02T05:28:43;11.40;56.20
31677;DHT22;18385;51.572;6.578;2024-03-02T05:31:15;11.30;56.30
31677;DHT22;18385;51.572;6.578;2024-03-02T05:33:40;11.20;56.40
31677;DHT22;18385;51.572;6.578;2024-03-02T05:36:06;11.10;56.50
31677;DHT22;18385;51.572;6.578;2024-03-02T05:38:34;11.00;56.70
31677;DHT22;18385;51.572;6.578;2024-03-02T05:41:00;10.90;56.80
31677;DHT22;18385;51.572;6.578;2024-03-02T05:43:26;10.90;56.90
31677;DHT22;18385;51.572;6.578;2024-03-02T05:45:51;10.90;57.00
31677;DHT22;18385;51.572;6.578;2024-03-02T05:48:17;10.90;57.00
31677;DHT22;18385;51.572;6.578;2024-03-02T05:50:42;10.90;57.10
31677;DHT22;18385;51.572;6.578;2024-03-02T05:53:08;10.90;57.10
31677;DHT22;18385;51.572;6.578;2024-03-02T05:55:34;10.80;57.00
31677;DHT22;18385;51.572;6.578;2024-03-02T05:57:59;10.70;57.00
31677;DHT22;18385;51.572;6.578;2024-03-02T06:00:31;10.60;57.10
31677;DHT22;18385;51.572;6.578;2024-03-02T06:02:57;10.50;57.20
31677;DHT22;18385;51.572;6.578;2024-03-02T06:05:24;10.40;57.30
31677;DHT22;18385;51.572;6.578;2024-03-02T06:07:52;10.30;57.40
31677;DHT22;18385;51.572;6.578;2024-03-02T06:10:18;10.30;57.60
31677;DHT22;18385;51.572;6.578;2024-03-02T06:12:44;10.30;57.70
31677;DHT22;18385;51.572;6.578;2024-03-02T06:15:10;10.30;57.80
31677;DHT22;18385;51.572;6.578;2024-03-02T06:17:36;10.40;57.90
31677;DHT22;18385;51.572;6.578;2024-03-02T06:20:02;10.40;58.00
31677;DHT22;18385;51.572;6.578;2024-03-02T06:22:31;10.60;58.00
31677;DHT22;18385;51.572;6.578;2024-03-02T06:24:57;10.80;58.00
31677;DHT22;18385;51.572;6.578;2024-03-02T06:27:23;10.90;57.80
31677;DHT22;18385;51.572;6.578;2024-03-02T06:29:48;10.90;57.60
31677;DHT22;18385;51.572;6.578;2024-03-02T06:32:14;11.00;57.60
31677;DHT22;18385;51.572;6.578;2024-03-02T06:34:39;11.00;57.50
31677;DHT22;18385;51.572;6.578;2024-03-02T06:37:05;10.90;57.50
31677;DHT22;18385;51.572;6.578;2024-03-02T06:39:31;10.90;57.50
31677;DHT22;18385;51.572;6.578;2024-03-02T06:41:59;10.80;57.60
31677;DHT22;18385;51.572;6.578;2024-03-02T06:44:25;10.80;57.60
31677;DHT22;18385;51.572;6.578;2024-03-02T06:46:51;10.70;57.70
31677;DHT22;18385;51.572;6.578;2024-03-02T06:49:16;10.70;57.80
31677;DHT22;18385;51.572;6.578;2024-03-02T06:51:44;10.60;57.80
31677;DHT22;18385;51.572;6.578;2024-03-02T06:54:09;10.60;57.90
31677;DHT22;18385;51.572;6.578;2024-03-02T06:56:35;10.50;58.00
31677;DHT22;18385;51.572;6.578;2024-03-02T06:59:01;10.60;58.10
31677;DHT22;18385;51.572;6.578;2024-03-02T07:01:26;10.60;58.10
31677;DHT22;18385;51.572;6.578;2024-03-02T07:03:53;10.60;58.20
31677;DHT22;18385;51.572;6.578;2024-03-02T07:06:19;10.70;58.20
31677;DHT22;18385;51.572;6.578;2024-03-02T07:08:45;10.60;58.20
31677;DHT22;18385;51.572;6.578;2024-03-02T07:11:11;10.70;58.20
31677;DHT22;18385;51.572;6.578;2024-03-02T07:13:36;10.80;58.30
31677;DHT22;18385;51.572;6.578;2024-03-02T07:16:02;10.90;58.50
31677;DHT22;18385;51.572;6.578;2024-03-02T07:18:28;11.00;58.60
31677;DHT22;18385;51.572;6.578;2024-03-02T07:20:54;11.20;58.50
31677;DHT22;18385;51.572;6.578;2024-03-02T07:23:21;11.40;58.40
31677;DHT22;18385;51.572;6.578;2024-03-02T07:25:49;11.50;58.20
31677;DHT22;18385;51.572;6.578;2024-03-02T07:28:16;11.60;58.60
31677;DHT22;18385;51.572;6.578;2024-03-02T07:30:41;11.60;57.80
31677;DHT22;18385;51.572;6.578;2024-03-02T07:33:07;11.60;57.80
31677;DHT22;18385;51.572;6.578;2024-03-02T07:35:32;11.60;57.80
31677;DHT22;18385;51.572;6.578;2024-03-02T07:37:59;11.70;58.00
31677;DHT22;18385;51.572;6.578;2024-03-02T07:40:24;11.80;58.10
31677;DHT22;18385;51.572;6.578;2024-03-02T07:42:50;11.90;58.10
31677;DHT22;18385;51.572;6.578;2024-03-02T07:45:16;12.00;57.80
31677;DHT22;18385;51.572;6.578;2024-03-02T07:47:41;12.10;57.70
31677;DHT22;18385;51.572;6.578;2024-03-02T07:50:07;12.10;57.60
31677;DHT22;18385;51.572;6.578;2024-03-02T07:52:33;12.10;57.50
31677;DHT22;18385;51.572;6.578;2024-03-02T07:54:59;12.00;57.50
31677;DHT22;18385;51.572;6.578;2024-03-02T07:57:25;12.00;57.60
31677;DHT22;18385;51.572;6.578;2024-03-02T07:59:51;12.00;57.70
31677;DHT22;18385;51.572;6.578;2024-03-02T08:02:16;12.00;57.70
31677;DHT22;18385;51.572;6.578;2024-03-02T08:04:42;12.00;57.80
31677;DHT22;18385;51.572;6.578;2024-03-02T08:07:08;12.00;57.80
31677;DHT22;18385;51.572;6.578;2024-03-02T08:09:34;12.10;57.80
31677;DHT22;18385;51.572;6.578;2024-03-02T08:12:00;12.20;57.80
31677;DHT22;18385;51.572;6.578;2024-03-02T08:14:26;12.30;57.80
31677;DHT22;18385;51.572;6.578;2024-03-02T08:16:51;12.40;57.80
31677;DHT22;18385;51.572;6.578;2024-03-02T08:19:17;12.50;57.70
31677;DHT22;18385;51.572;6.578;2024-03-02T08:21:43;12.60;57.60
31677;DHT22;18385;51.572;6.578;2024-03-02T08:24:09;12.70;57.50
31677;DHT22;18385;51.572;6.578;2024-03-02T08:26:35;12.70;57.30
31677;DHT22;18385;51.572;6.578;2024-03-02T08:29:01;12.80;57.30
31677;DHT22;18385;51.572;6.578;2024-03-02T08:31:29;12.80;57.30
31677;DHT22;18385;51.572;6.578;2024-03-02T08:33:54;12.80;58.00
31677;DHT22;18385;51.572;6.578;2024-03-02T08:36:21;12.90;57.40
31677;DHT22;18385;51.572;6.578;2024-03-02T08:38:51;12.90;57.30
31677;DHT22;18385;51.572;6.578;2024-03-02T08:41:17;12.90;57.30
31677;DHT22;18385;51.572;6.578;2024-03-02T08:43:43;13.00;57.40
31677;DHT22;18385;51.572;6.578;2024-03-02T08:46:08;13.10;57.40
31677;DHT22;18385;51.572;6.578;2024-03-02T08:48:34;13.20;57.30
31677;DHT22;18385;51.572;6.578;2024-03-02T08:51:00;13.20;57.20
31677;DHT22;18385;51.572;6.578;2024-03-02T08:53:26;13.30;57.10
31677;DHT22;18385;51.572;6.578;2024-03-02T08:55:52;13.30;57.10
31677;DHT22;18385;51.572;6.578;2024-03-02T08:58:17;13.40;57.10
31677;DHT22;18385;51.572;6.578;2024-03-02T09:00:43;13.50;57.00
31677;DHT22;18385;51.572;6.578;2024-03-02T09:03:09;13.50;57.00
31677;DHT22;18385;51.572;6.578;2024-03-02T09:05:35;13.60;57.00
31677;DHT22;18385;51.572;6.578;2024-03-02T09:08:01;13.60;56.90
31677;DHT22;18385;51.572;6.578;2024-03-02T09:10:26;13.70;56.90
31677;DHT22;18385;51.572;6.578;2024-03-02T09:12:52;13.70;56.90
31677;DHT22;18385;51.572;6.578;2024-03-02T09:15:18;13.70;56.80
31677;DHT22;18385;51.572;6.578;2024-03-02T09:17:43;13.80;56.80
31677;DHT22;18385;51.572;6.578;2024-03-02T09:20:10;13.80;56.80
31677;DHT22;18385;51.572;6.578;2024-03-02T09:22:36;14.00;56.80
31677;DHT22;18385;51.572;6.578;2024-03-02T09:25:02;14.00;57.20
31677;DHT22;18385;51.572;6.578;2024-03-02T09:27:28;14.10;56.50
31677;DHT22;18385;51.572;6.578;2024-03-02T09:29:53;14.10;56.40
31677;DHT22;18385;51.572;6.578;2024-03-02T09:32:19;14.10;56.40
31677;DHT22;18385;51.572;6.578;2024-03-02T09:34:45;14.20;56.40
31677;DHT22;18385;51.572;6.578;2024-03-02T09:37:10;14.20;56.40
31677;DHT22;18385;51.572;6.578;2024-03-02T09:39:36;14.30;56.40
31677;DHT22;18385;51.572;6.578;2024-03-02T09:42:04;14.30;56.30
31677;DHT22;18385;51.572;6.578;2024-03-02T09:44:30;14.30;56.40
31677;DHT22;18385;51.572;6.578;2024-03-02T09:46:55;14.40;56.20
31677;DHT22;18385;51.572;6.578;2024-03-02T09:49:21;14.40;56.20
31677;DHT22;18385;51.572;6.578;2024-03-02T09:51:48;14.50;56.30
31677;DHT22;18385;51.572;6.578;2024-03-02T09:54:15;14.50;56.00
31677;DHT22;18385;51.572;6.578;2024-03-02T09:56:41;14.50;56.00
31677;DHT22;18385;51.572;6.578;2024-03-02T09:59:07;14.60;56.00
31677;DHT22;18385;51.572;6.578;2024-03-02T10:01:32;14.70;55.90
31677;DHT22;18385;51.572;6.578;2024-03-02T10:04:00;14.70;55.80
31677;DHT22;18385;51.572;6.578;2024-03-02T10:06:27;14.70;55.70
31677;DHT22;18385;51.572;6.578;2024-03-02T10:08:54;14.80;55.70
31677;DHT22;18385;51.572;6.578;2024-03-02T10:11:32;14.80;55.60
31677;DHT22;18385;51.572;6.578;2024-03-02T10:16:44;14.90;55.50
31677;DHT22;18385;51.572;6.578;2024-03-02T10:19:24;14.90;55.40
31677;DHT22;18385;51.572;6.578;2024-03-02T10:21:53;14.90;55.50
31677;DHT22;18385;51.572;6.578;2024-03-02T10:24:20;15.00;55.50
31677;DHT22;18385;51.572;6.578;2024-03-02T10:26:47;15.10;55.30
31677;DHT22;18385;51.572;6.578;2024-03-02T10:29:13;15.20;55.10
31677;DHT22;18385;51.572;6.578;2024-03-02T10:31:40;15.10;54.70
31677;DHT22;18385;51.572;6.578;2024-03-02T10:34:07;15.00;54.80
31677;DHT22;18385;51.572;6.578;2024-03-02T10:36:34;15.00;54.90
31677;DHT22;18385;51.572;6.578;2024-03-02T10:39:03;15.00;55.00
31677;DHT22;18385;51.572;6.578;2024-03-02T10:41:35;15.00;54.90
31677;DHT22;18385;51.572;6.578;2024-03-02T10:44:09;15.10;54.90
31677;DHT22;18385;51.572;6.578;2024-03-02T10:46:38;15.20;54.90
31677;DHT22;18385;51.572;6.578;2024-03-02T10:49:05;15.30;54.70
31677;DHT22;18385;51.572;6.578;2024-03-02T10:51:32;15.30;54.50
31677;DHT22;18385;51.572;6.578;2024-03-02T10:53:59;15.30;54.40
31677;DHT22;18385;51.572;6.578;2024-03-02T10:56:43;15.30;54.40
31677;DHT22;18385;51.572;6.578;2024-03-02T10:59:28;15.30;54.30
31677;DHT22;18385;51.572;6.578;2024-03-02T11:01:58;15.40;54.20
31677;DHT22;18385;51.572;6.578;2024-03-02T11:04:26;15.40;54.20
31677;DHT22;18385;51.572;6.578;2024-03-02T11:06:55;15.40;54.10
31677;DHT22;18385;51.572;6.578;2024-03-02T11:09:26;15.40;54.10
31677;DHT22;18385;51.572;6.578;2024-03-02T11:12:31;15.40;53.90
31677;DHT22;18385;51.572;6.578;2024-03-02T11:15:06;15.60;53.80
31677;DHT22;18385;51.572;6.578;2024-03-02T11:17:35;15.60;53.60
31677;DHT22;18385;51.572;6.578;2024-03-02T11:20:03;15.60;53.60
31677;DHT22;18385;51.572;6.578;2024-03-02T11:22:29;15.70;53.70
31677;DHT22;18385;51.572;6.578;2024-03-02T11:24:55;15.70;53.40
31677;DHT22;18385;51.572;6.578;2024-03-02T11:33:03;15.90;53.00
31677;DHT22;18385;51.572;6.578;2024-03-02T11:35:36;16.00;53.10
31677;DHT22;18385;51.572;6.578;2024-03-02T11:38:03;16.10;52.90
31677;DHT22;18385;51.572;6.578;2024-03-02T11:40:30;16.00;52.80
31677;DHT22;18385;51.572;6.578;2024-03-02T11:42:56;16.20;52.80
31677;DHT22;18385;51.572;6.578;2024-03-02T11:45:23;16.30;52.80
31677;DHT22;18385;51.572;6.578;2024-03-02T11:47:57;16.40;52.60
31677;DHT22;18385;51.572;6.578;2024-03-02T11:50:30;16.50;52.30
31677;DHT22;18385;51.572;6.578;2024-03-02T11:52:56;16.50;52.30
31677;DHT22;18385;51.572;6.578;2024-03-02T11:55:27;16.60;52.60
31677;DHT22;18385;51.572;6.578;2024-03-02T11:57:54;16.70;52.40
31677;DHT22;18385;51.572;6.578;2024-03-02T12:00:21;16.90;52.30
31677;DHT22;18385;51.572;6.578;2024-03-02T12:02:59;17.00;52.10
31677;DHT22;18385;51.572;6.578;2024-03-02T12:05:25;17.10;51.90
31677;DHT22;18385;51.572;6.578;2024-03-02T12:08:01;17.20;51.80
31677;DHT22;18385;51.572;6.578;2024-03-02T12:10:27;17.30;51.60
31677;DHT22;18385;51.572;6.578;2024-03-02T12:13:05;17.20;51.30
31677;DHT22;18385;51.572;6.578;2024-03-02T12:15:36;17.20;51.30
31677;DHT22;18385;51.572;6.578;2024-03-02T12:18:03;17.20;51.60
31677;DHT22;18385;51.572;6.578;2024-03-02T12:20:30;17.20;51.40
31677;DHT22;18385;51.572;6.578;2024-03-02T12:22:58;17.30;51.20
31677;DHT22;18385;51.572;6.578;2024-03-02T12:25:25;17.40;51.00
31677;DHT22;18385;51.572;6.578;2024-03-02T12:27:54;17.30;50.80
31677;DHT22;18385;51.572;6.578;2024-03-02T12:30:20;17.20;50.80
31677;DHT22;18385;51.572;6.578;2024-03-02T12:32:47;17.20;50.90
31677;DHT22;18385;51.572;6.578;2024-03-02T12:35:13;17.20;51.00
31677;DHT22;18385;51.572;6.578;2024-03-02T12:37:46;17.40;51.00
31677;DHT22;18385;51.572;6.578;2024-03-02T12:40:13;17.60;50.90
31677;DHT22;18385;51.572;6.578;2024-03-02T12:42:40;17.70;50.70
31677;DHT22;18385;51.572;6.578;2024-03-02T12:45:08;18.00;50.70
31677;DHT22;18385;51.572;6.578;2024-03-02T12:47:37;18.20;50.40
31677;DHT22;18385;51.572;6.578;2024-03-02T12:50:06;18.30;50.00
31677;DHT22;18385;51.572;6.578;2024-03-02T12:52:33;18.20;49.90
31677;DHT22;18385;51.572;6.578;2024-03-02T12:55:04;18.30;49.90
31677;DHT22;18385;51.572;6.578;2024-03-02T12:57:31;18.40;49.90
31677;DHT22;18385;51.572;6.578;2024-03-02T13:00:04;18.50;49.60
31677;DHT22;18385;51.572;6.578;2024-03-02T13:02:42;18.50;49.50
31677;DHT22;18385;51.572;6.578;2024-03-02T13:05:08;18.60;49.50
31677;DHT22;18385;51.572;6.578;2024-03-02T13:07:40;18.60;49.30
31677;DHT22;18385;51.572;6.578;2024-03-02T13:10:07;18.80;49.30
31677;DHT22;18385;51.572;6.578;2024-03-02T13:12:36;18.90;49.20
31677;DHT22;18385;51.572;6.578;2024-03-02T13:15:03;19.00;48.90
31677;DHT22;18385;51.572;6.578;2024-03-02T13:17:29;18.90;48.70
31677;DHT22;18385;51.572;6.578;2024-03-02T13:19:58;18.90;48.60
31677;DHT22;18385;51.572;6.578;2024-03-02T13:22:25;18.90;48.60
31677;DHT22;18385;51.572;6.578;2024-03-02T13:24:53;18.90;48.60
31677;DHT22;18385;51.572;6.578;2024-03-02T13:27:21;18.90;48.60
31677;DHT22;18385;51.572;6.578;2024-03-02T13:29:49;18.90;48.40
31677;DHT22;18385;51.572;6.578;2024-03-02T13:32:15;18.90;48.30
31677;DHT22;18385;51.572;6.578;2024-03-02T13:34:41;19.00;48.60
31677;DHT22;18385;51.572;6.578;2024-03-02T13:37:07;19.20;48.50
31677;DHT22;18385;51.572;6.578;2024-03-02T13:39:33;19.40;48.40
31677;DHT22;18385;51.572;6.578;2024-03-02T13:42:08;19.70;48.30
31677;DHT22;18385;51.572;6.578;2024-03-02T13:44:34;19.80;47.80
31677;DHT22;18385;51.572;6.578;2024-03-02T13:47:03;19.80;47.60
31677;DHT22;18385;51.572;6.578;2024-03-02T13:49:30;19.80;47.50
31677;DHT22;18385;51.572;6.578;2024-03-02T13:52:00;19.80;47.60
31677;DHT22;18385;51.572;6.578;2024-03-02T13:54:29;19.60;47.40
31677;DHT22;18385;51.572;6.578;2024-03-02T13:56:56;19.70;48.00
31677;DHT22;18385;51.572;6.578;2024-03-02T13:59:23;20.20;48.70
31677;DHT22;18385;51.572;6.578;2024-03-02T14:01:48;20.50;48.00
31677;DHT22;18385;51.572;6.578;2024-03-02T14:04:15;20.70;47.70
31677;DHT22;18385;51.572;6.578;2024-03-02T14:06:42;20.80;47.60
31677;DHT22;18385;51.572;6.578;2024-03-02T14:09:09;20.80;47.10
31677;DHT22;18385;51.572;6.578;2024-03-02T14:11:34;20.80;47.20
31677;DHT22;18385;51.572;6.578;2024-03-02T14:14:01;20.90;46.90
31677;DHT22;18385;51.572;6.578;2024-03-02T14:16:28;20.90;46.40
31677;DHT22;18385;51.572;6.578;2024-03-02T14:18:54;20.50;45.60
31677;DHT22;18385;51.572;6.578;2024-03-02T14:21:19;20.20;45.70
31677;DHT22;18385;51.572;6.578;2024-03-02T14:23:45;20.00;46.00
31677;DHT22;18385;51.572;6.578;2024-03-02T14:26:11;19.90;46.20
31677;DHT22;18385;51.572;6.578;2024-03-02T14:28:38;19.90;46.30
31677;DHT22;18385;51.572;6.578;2024-03-02T14:31:03;19.90;46.30
31677;DHT22;18385;51.572;6.578;2024-03-02T14:33:29;19.90;47.00
31677;DHT22;18385;51.572;6.578;2024-03-02T14:35:56;20.10;46.40
31677;DHT22;18385;51.572;6.578;2024-03-02T14:38:21;20.00;45.60
31677;DHT22;18385;51.572;6.578;2024-03-02T14:40:47;19.80;45.50
31677;DHT22;18385;51.572;6.578;2024-03-02T14:43:12;19.70;45.50
31677;DHT22;18385;51.572;6.578;2024-03-02T14:45:38;19.50;45.40
31677;DHT22;18385;51.572;6.578;2024-03-02T14:48:05;19.30;45.50
31677;DHT22;18385;51.572;6.578;2024-03-02T14:50:30;19.20;45.60
31677;DHT22;18385;51.572;6.578;2024-03-02T14:52:56;19.00;45.70
31677;DHT22;18385;51.572;6.578;2024-03-02T14:55:23;18.90;45.80
31677;DHT22;18385;51.572;6.578;2024-03-02T14:57:49;19.00;45.80
31677;DHT22;18385;51.572;6.578;2024-03-02T15:00:15;19.00;45.90
31677;DHT22;18385;51.572;6.578;2024-03-02T15:02:41;19.00;45.60
31677;DHT22;18385;51.572;6.578;2024-03-02T15:05:07;18.80;45.50
31677;DHT22;18385;51.572;6.578;2024-03-02T15:07:33;18.70;45.60
31677;DHT22;18385;51.572;6.578;2024-03-02T15:09:58;18.70;45.60
31677;DHT22;18385;51.572;6.578;2024-03-02T15:12:24;18.60;45.60
31677;DHT22;18385;51.572;6.578;2024-03-02T15:14:50;18.50;45.70
31677;DHT22;18385;51.572;6.578;2024-03-02T15:17:16;18.40;45.80
31677;DHT22;18385;51.572;6.578;2024-03-02T15:19:43;18.40;45.80
31677;DHT22;18385;51.572;6.578;2024-03-02T15:22:09;18.50;46.00
31677;DHT22;18385;51.572;6.578;2024-03-02T15:24:34;18.60;45.90
31677;DHT22;18385;51.572;6.578;2024-03-02T15:27:00;18.70;45.80
31677;DHT22;18385;51.572;6.578;2024-03-02T15:29:29;18.70;45.70
31677;DHT22;18385;51.572;6.578;2024-03-02T15:31:59;18.60;45.60
31677;DHT22;18385;51.572;6.578;2024-03-02T15:34:25;18.50;45.40
31677;DHT22;18385;51.572;6.578;2024-03-02T15:36:51;18.50;45.50
31677;DHT22;18385;51.572;6.578;2024-03-02T15:39:16;18.40;45.50